LEMD METAR and TAF | Updated Today

LEMD METAR

Adolfo Suárez Madrid–Barajas Airport

Observation time: 25 min. ago

LEMD 221000Z 11003KT 9999 FEW035 17/08 Q1016 NOSIG

Need help? Read our tutorial on how to read METARs or read the parsed version below.

Adolfo Suárez Madrid–Barajas Airport (LEMD) METAR

  • Weather conditions on Fri, 22 Sep 2023 10:00:00 +0000 (25 min. ago):
  • Present conditions: Dry
  • Clouds: A few at 1067 meters
  • Visibility: Greater than 10 km
  • Wind: 110 degrees at 3 knots
  • Temperature: 17 celsius
  • Dew point: 8 celsius
  • Pressure: 1016 millibars
  • Remarks: None


Useful to know...

LEMD TAF

Adolfo Suárez Madrid–Barajas Airport

TAF LEMD 220500Z 2206/2312 VRB04KT CAVOK TX24/2215Z TN09/2306Z
Observation time: 5:25 hr. ago
Need help? Read our tutorial on how to read TAFs or read the parsed version below.

Parsed version of TAF for Adolfo Suárez Madrid–Barajas Airport (LEMD)

  • From 22 September at 06:00 UTC, to day 23 of the month at 12:00 UTC
  • Visibility: Greater than 10 km
  • Wind: Variable at 4